sensor_id;sensor_type;location;lat;lon;timestamp;P1;durP1;ratioP1;P2;durP2;ratioP2
24713;SDS011;12820;51.580;5.010;2023-10-31T00:03:57;10.80;;;1.95;;
24713;SDS011;12820;51.580;5.010;2023-10-31T00:08:59;7.82;;;1.90;;
24713;SDS011;12820;51.580;5.010;2023-10-31T00:14:01;10.05;;;1.70;;
24713;SDS011;12820;51.580;5.010;2023-10-31T00:19:04;7.82;;;1.58;;
24713;SDS011;12820;51.580;5.010;2023-10-31T00:24:06;13.23;;;1.75;;
24713;SDS011;12820;51.580;5.010;2023-10-31T00:29:08;9.60;;;1.98;;
24713;SDS011;12820;51.580;5.010;2023-10-31T00:34:11;11.95;;;2.25;;
24713;SDS011;12820;51.580;5.010;2023-10-31T00:39:13;13.88;;;3.63;;
24713;SDS011;12820;51.580;5.010;2023-10-31T00:44:15;12.77;;;2.67;;
24713;SDS011;12820;51.580;5.010;2023-10-31T00:49:17;11.18;;;3.13;;
24713;SDS011;12820;51.580;5.010;2023-10-31T00:54:19;15.57;;;5.82;;
24713;SDS011;12820;51.580;5.010;2023-10-31T00:59:21;19.40;;;5.85;;
24713;SDS011;12820;51.580;5.010;2023-10-31T01:04:24;24.45;;;12.02;;
24713;SDS011;12820;51.580;5.010;2023-10-31T01:09:27;31.15;;;15.90;;
24713;SDS011;12820;51.580;5.010;2023-10-31T01:14:29;30.15;;;14.15;;
24713;SDS011;12820;51.580;5.010;2023-10-31T01:19:31;42.78;;;24.02;;
24713;SDS011;12820;51.580;5.010;2023-10-31T01:24:34;49.70;;;21.85;;
24713;SDS011;12820;51.580;5.010;2023-10-31T01:29:37;61.05;;;30.38;;
24713;SDS011;12820;51.580;5.010;2023-10-31T01:34:39;61.78;;;29.77;;
24713;SDS011;12820;51.580;5.010;2023-10-31T01:39:41;65.50;;;32.90;;
24713;SDS011;12820;51.580;5.010;2023-10-31T01:44:43;69.40;;;33.40;;
24713;SDS011;12820;51.580;5.010;2023-10-31T01:49:46;83.30;;;42.05;;
24713;SDS011;12820;51.580;5.010;2023-10-31T01:54:49;90.78;;;43.85;;
24713;SDS011;12820;51.580;5.010;2023-10-31T01:59:51;89.72;;;44.05;;
24713;SDS011;12820;51.580;5.010;2023-10-31T02:04:53;90.97;;;44.85;;
24713;SDS011;12820;51.580;5.010;2023-10-31T02:09:57;88.70;;;41.42;;
24713;SDS011;12820;51.580;5.010;2023-10-31T02:15:00;94.70;;;46.35;;
24713;SDS011;12820;51.580;5.010;2023-10-31T02:20:02;95.57;;;47.75;;
24713;SDS011;12820;51.580;5.010;2023-10-31T02:25:15;99.18;;;48.38;;
24713;SDS011;12820;51.580;5.010;2023-10-31T02:30:18;101.10;;;43.45;;
24713;SDS011;12820;51.580;5.010;2023-10-31T02:35:20;103.15;;;45.97;;
24713;SDS011;12820;51.580;5.010;2023-10-31T02:40:22;86.25;;;41.83;;
24713;SDS011;12820;51.580;5.010;2023-10-31T02:45:24;94.90;;;46.38;;
24713;SDS011;12820;51.580;5.010;2023-10-31T02:50:27;82.35;;;40.85;;
24713;SDS011;12820;51.580;5.010;2023-10-31T02:55:29;110.20;;;45.00;;
24713;SDS011;12820;51.580;5.010;2023-10-31T03:00:31;101.88;;;44.80;;
24713;SDS011;12820;51.580;5.010;2023-10-31T03:05:33;92.75;;;46.35;;
24713;SDS011;12820;51.580;5.010;2023-10-31T03:10:37;102.80;;;45.92;;
24713;SDS011;12820;51.580;5.010;2023-10-31T03:15:40;82.38;;;40.72;;
24713;SDS011;12820;51.580;5.010;2023-10-31T03:20:45;89.78;;;43.03;;
24713;SDS011;12820;51.580;5.010;2023-10-31T03:25:48;79.75;;;40.45;;
24713;SDS011;12820;51.580;5.010;2023-10-31T03:30:50;65.72;;;35.88;;
24713;SDS011;12820;51.580;5.010;2023-10-31T03:35:53;69.65;;;36.00;;
24713;SDS011;12820;51.580;5.010;2023-10-31T03:40:55;69.00;;;35.88;;
24713;SDS011;12820;51.580;5.010;2023-10-31T03:45:57;59.88;;;33.08;;
24713;SDS011;12820;51.580;5.010;2023-10-31T03:50:59;73.05;;;35.65;;
24713;SDS011;12820;51.580;5.010;2023-10-31T03:56:01;66.25;;;33.22;;
24713;SDS011;12820;51.580;5.010;2023-10-31T04:01:04;63.97;;;33.38;;
24713;SDS011;12820;51.580;5.010;2023-10-31T04:06:06;58.25;;;32.75;;
24713;SDS011;12820;51.580;5.010;2023-10-31T04:11:08;67.40;;;33.97;;
24713;SDS011;12820;51.580;5.010;2023-10-31T04:16:10;61.15;;;32.28;;
24713;SDS011;12820;51.580;5.010;2023-10-31T04:21:12;59.78;;;32.20;;
24713;SDS011;12820;51.580;5.010;2023-10-31T04:26:14;66.80;;;32.78;;
24713;SDS011;12820;51.580;5.010;2023-10-31T04:31:17;59.92;;;31.08;;
24713;SDS011;12820;51.580;5.010;2023-10-31T04:36:27;59.58;;;30.27;;
24713;SDS011;12820;51.580;5.010;2023-10-31T04:41:29;60.45;;;32.47;;
24713;SDS011;12820;51.580;5.010;2023-10-31T04:46:31;59.13;;;31.83;;
24713;SDS011;12820;51.580;5.010;2023-10-31T04:51:34;49.22;;;28.85;;
24713;SDS011;12820;51.580;5.010;2023-10-31T04:56:37;56.35;;;30.20;;
24713;SDS011;12820;51.580;5.010;2023-10-31T05:01:39;56.28;;;30.73;;
24713;SDS011;12820;51.580;5.010;2023-10-31T05:06:41;61.72;;;31.23;;
24713;SDS011;12820;51.580;5.010;2023-10-31T05:11:44;63.55;;;31.88;;
24713;SDS011;12820;51.580;5.010;2023-10-31T05:16:46;57.80;;;29.77;;
24713;SDS011;12820;51.580;5.010;2023-10-31T05:21:48;49.20;;;27.92;;
24713;SDS011;12820;51.580;5.010;2023-10-31T05:26:51;53.53;;;27.65;;
24713;SDS011;12820;51.580;5.010;2023-10-31T05:31:53;43.47;;;26.15;;
24713;SDS011;12820;51.580;5.010;2023-10-31T05:36:55;42.33;;;25.65;;
24713;SDS011;12820;51.580;5.010;2023-10-31T05:41:58;38.88;;;23.48;;
24713;SDS011;12820;51.580;5.010;2023-10-31T05:47:00;41.58;;;23.00;;
24713;SDS011;12820;51.580;5.010;2023-10-31T05:52:02;37.50;;;21.67;;
24713;SDS011;12820;51.580;5.010;2023-10-31T05:57:05;34.13;;;21.50;;
24713;SDS011;12820;51.580;5.010;2023-10-31T06:02:07;36.35;;;21.90;;
24713;SDS011;12820;51.580;5.010;2023-10-31T06:07:10;35.95;;;19.80;;
24713;SDS011;12820;51.580;5.010;2023-10-31T06:12:12;35.38;;;21.45;;
24713;SDS011;12820;51.580;5.010;2023-10-31T06:17:14;39.45;;;21.92;;
24713;SDS011;12820;51.580;5.010;2023-10-31T06:22:16;36.60;;;23.15;;
24713;SDS011;12820;51.580;5.010;2023-10-31T06:27:19;35.15;;;23.05;;
24713;SDS011;12820;51.580;5.010;2023-10-31T06:32:21;42.80;;;25.10;;
24713;SDS011;12820;51.580;5.010;2023-10-31T06:37:23;36.50;;;21.50;;
24713;SDS011;12820;51.580;5.010;2023-10-31T06:42:25;39.72;;;23.52;;
24713;SDS011;12820;51.580;5.010;2023-10-31T06:47:27;33.20;;;22.05;;
24713;SDS011;12820;51.580;5.010;2023-10-31T06:52:29;35.45;;;22.05;;
24713;SDS011;12820;51.580;5.010;2023-10-31T06:57:31;31.65;;;21.48;;
24713;SDS011;12820;51.580;5.010;2023-10-31T07:02:33;37.13;;;23.15;;
24713;SDS011;12820;51.580;5.010;2023-10-31T07:07:36;32.22;;;21.80;;
24713;SDS011;12820;51.580;5.010;2023-10-31T07:12:38;35.92;;;23.05;;
24713;SDS011;12820;51.580;5.010;2023-10-31T07:17:41;35.60;;;23.23;;
24713;SDS011;12820;51.580;5.010;2023-10-31T07:22:43;36.63;;;25.92;;
24713;SDS011;12820;51.580;5.010;2023-10-31T07:27:45;37.85;;;26.40;;
24713;SDS011;12820;51.580;5.010;2023-10-31T07:32:47;37.97;;;27.67;;
24713;SDS011;12820;51.580;5.010;2023-10-31T07:37:50;36.90;;;27.60;;
24713;SDS011;12820;51.580;5.010;2023-10-31T07:42:52;42.47;;;28.50;;
24713;SDS011;12820;51.580;5.010;2023-10-31T07:47:54;38.45;;;27.38;;
24713;SDS011;12820;51.580;5.010;2023-10-31T07:52:56;35.95;;;26.00;;
24713;SDS011;12820;51.580;5.010;2023-10-31T07:57:58;36.88;;;24.98;;
24713;SDS011;12820;51.580;5.010;2023-10-31T08:03:01;34.15;;;24.48;;
24713;SDS011;12820;51.580;5.010;2023-10-31T08:08:04;34.40;;;25.13;;
24713;SDS011;12820;51.580;5.010;2023-10-31T08:13:06;36.85;;;25.00;;
24713;SDS011;12820;51.580;5.010;2023-10-31T08:18:08;41.47;;;26.02;;
24713;SDS011;12820;51.580;5.010;2023-10-31T08:23:11;45.22;;;28.25;;
24713;SDS011;12820;51.580;5.010;2023-10-31T08:28:13;45.45;;;27.45;;
24713;SDS011;12820;51.580;5.010;2023-10-31T08:33:16;53.30;;;33.83;;
24713;SDS011;12820;51.580;5.010;2023-10-31T08:38:18;60.88;;;33.95;;
24713;SDS011;12820;51.580;5.010;2023-10-31T08:43:32;63.15;;;35.90;;
24713;SDS011;12820;51.580;5.010;2023-10-31T08:48:34;64.57;;;35.78;;
24713;SDS011;12820;51.580;5.010;2023-10-31T08:53:36;63.80;;;35.45;;
24713;SDS011;12820;51.580;5.010;2023-10-31T08:58:38;63.95;;;35.28;;
24713;SDS011;12820;51.580;5.010;2023-10-31T09:03:42;61.80;;;34.38;;
24713;SDS011;12820;51.580;5.010;2023-10-31T09:08:44;56.30;;;32.35;;
24713;SDS011;12820;51.580;5.010;2023-10-31T09:13:46;57.80;;;31.85;;
24713;SDS011;12820;51.580;5.010;2023-10-31T09:18:48;57.53;;;32.35;;
24713;SDS011;12820;51.580;5.010;2023-10-31T09:23:51;51.50;;;30.90;;
24713;SDS011;12820;51.580;5.010;2023-10-31T09:28:53;54.90;;;31.52;;
24713;SDS011;12820;51.580;5.010;2023-10-31T09:33:56;55.55;;;30.90;;
24713;SDS011;12820;51.580;5.010;2023-10-31T09:38:58;56.65;;;30.25;;
24713;SDS011;12820;51.580;5.010;2023-10-31T09:44:00;52.83;;;29.25;;
24713;SDS011;12820;51.580;5.010;2023-10-31T09:49:03;60.17;;;30.58;;
24713;SDS011;12820;51.580;5.010;2023-10-31T09:54:05;49.33;;;27.42;;
24713;SDS011;12820;51.580;5.010;2023-10-31T09:59:08;49.58;;;27.90;;
24713;SDS011;12820;51.580;5.010;2023-10-31T10:04:11;44.25;;;26.80;;
24713;SDS011;12820;51.580;5.010;2023-10-31T10:09:13;52.38;;;28.10;;
24713;SDS011;12820;51.580;5.010;2023-10-31T10:14:16;45.92;;;26.83;;
24713;SDS011;12820;51.580;5.010;2023-10-31T10:19:19;40.90;;;24.40;;
24713;SDS011;12820;51.580;5.010;2023-10-31T10:24:23;43.80;;;25.58;;
24713;SDS011;12820;51.580;5.010;2023-10-31T10:29:26;39.33;;;24.55;;
24713;SDS011;12820;51.580;5.010;2023-10-31T10:34:28;45.47;;;26.55;;
24713;SDS011;12820;51.580;5.010;2023-10-31T10:39:33;49.13;;;27.75;;
24713;SDS011;12820;51.580;5.010;2023-10-31T10:44:38;45.05;;;28.50;;
24713;SDS011;12820;51.580;5.010;2023-10-31T10:49:44;45.72;;;27.50;;
24713;SDS011;12820;51.580;5.010;2023-10-31T10:59:52;44.85;;;27.45;;
24713;SDS011;12820;51.580;5.010;2023-10-31T11:04:58;41.25;;;26.50;;
24713;SDS011;12820;51.580;5.010;2023-10-31T11:10:02;39.88;;;26.27;;
24713;SDS011;12820;51.580;5.010;2023-10-31T11:15:05;38.33;;;26.35;;
24713;SDS011;12820;51.580;5.010;2023-10-31T11:20:12;38.58;;;26.20;;
24713;SDS011;12820;51.580;5.010;2023-10-31T11:25:19;39.42;;;25.83;;
24713;SDS011;12820;51.580;5.010;2023-10-31T11:30:33;40.80;;;25.83;;
24713;SDS011;12820;51.580;5.010;2023-10-31T11:35:36;41.97;;;26.60;;
24713;SDS011;12820;51.580;5.010;2023-10-31T11:45:46;36.92;;;25.50;;
24713;SDS011;12820;51.580;5.010;2023-10-31T11:50:50;35.58;;;24.15;;
24713;SDS011;12820;51.580;5.010;2023-10-31T11:55:53;39.00;;;25.05;;
24713;SDS011;12820;51.580;5.010;2023-10-31T12:01:02;27.13;;;19.58;;
24713;SDS011;12820;51.580;5.010;2023-10-31T12:06:06;23.60;;;17.67;;
24713;SDS011;12820;51.580;5.010;2023-10-31T12:11:12;25.33;;;16.58;;
24713;SDS011;12820;51.580;5.010;2023-10-31T12:16:19;20.47;;;13.70;;
24713;SDS011;12820;51.580;5.010;2023-10-31T12:21:35;17.58;;;12.18;;
24713;SDS011;12820;51.580;5.010;2023-10-31T12:26:40;15.50;;;11.50;;
24713;SDS011;12820;51.580;5.010;2023-10-31T12:31:47;18.25;;;13.20;;
24713;SDS011;12820;51.580;5.010;2023-10-31T12:36:52;17.58;;;12.20;;
24713;SDS011;12820;51.580;5.010;2023-10-31T12:41:55;18.00;;;12.82;;
24713;SDS011;12820;51.580;5.010;2023-10-31T12:46:59;19.42;;;11.07;;
24713;SDS011;12820;51.580;5.010;2023-10-31T12:52:02;12.32;;;9.23;;
24713;SDS011;12820;51.580;5.010;2023-10-31T12:57:06;11.55;;;7.53;;
24713;SDS011;12820;51.580;5.010;2023-10-31T13:02:10;12.15;;;7.32;;
24713;SDS011;12820;51.580;5.010;2023-10-31T13:07:26;11.68;;;7.43;;
24713;SDS011;12820;51.580;5.010;2023-10-31T13:12:29;12.57;;;7.28;;
24713;SDS011;12820;51.580;5.010;2023-10-31T13:17:32;13.07;;;6.85;;
24713;SDS011;12820;51.580;5.010;2023-10-31T13:22:35;12.90;;;6.93;;
24713;SDS011;12820;51.580;5.010;2023-10-31T13:27:41;12.70;;;6.63;;
24713;SDS011;12820;51.580;5.010;2023-10-31T13:32:45;7.93;;;5.78;;
24713;SDS011;12820;51.580;5.010;2023-10-31T13:37:47;14.55;;;5.43;;
24713;SDS011;12820;51.580;5.010;2023-10-31T13:42:49;12.65;;;4.93;;
24713;SDS011;12820;51.580;5.010;2023-10-31T13:47:54;12.93;;;5.28;;
24713;SDS011;12820;51.580;5.010;2023-10-31T13:52:56;9.73;;;4.88;;
24713;SDS011;12820;51.580;5.010;2023-10-31T13:57:59;15.18;;;5.80;;
24713;SDS011;12820;51.580;5.010;2023-10-31T14:03:01;12.50;;;5.43;;
24713;SDS011;12820;51.580;5.010;2023-10-31T14:08:04;12.88;;;5.70;;
24713;SDS011;12820;51.580;5.010;2023-10-31T14:13:08;12.55;;;6.15;;
24713;SDS011;12820;51.580;5.010;2023-10-31T14:18:10;12.57;;;5.70;;
24713;SDS011;12820;51.580;5.010;2023-10-31T14:23:12;13.48;;;6.10;;
24713;SDS011;12820;51.580;5.010;2023-10-31T14:28:14;13.30;;;6.10;;
24713;SDS011;12820;51.580;5.010;2023-10-31T14:33:16;16.50;;;6.38;;
24713;SDS011;12820;51.580;5.010;2023-10-31T14:38:18;10.95;;;6.05;;
24713;SDS011;12820;51.580;5.010;2023-10-31T14:43:21;13.77;;;6.35;;
24713;SDS011;12820;51.580;5.010;2023-10-31T14:48:23;17.30;;;6.32;;
24713;SDS011;12820;51.580;5.010;2023-10-31T14:53:25;10.10;;;5.63;;
24713;SDS011;12820;51.580;5.010;2023-10-31T14:58:27;12.73;;;6.43;;
24713;SDS011;12820;51.580;5.010;2023-10-31T15:03:30;11.85;;;6.28;;
24713;SDS011;12820;51.580;5.010;2023-10-31T15:08:33;15.82;;;7.43;;
24713;SDS011;12820;51.580;5.010;2023-10-31T15:13:35;12.20;;;7.78;;
24713;SDS011;12820;51.580;5.010;2023-10-31T15:18:38;14.85;;;8.80;;
24713;SDS011;12820;51.580;5.010;2023-10-31T15:23:42;14.48;;;8.60;;
24713;SDS011;12820;51.580;5.010;2023-10-31T15:28:44;16.92;;;8.85;;
24713;SDS011;12820;51.580;5.010;2023-10-31T15:33:46;17.02;;;7.70;;
24713;SDS011;12820;51.580;5.010;2023-10-31T15:38:49;12.77;;;7.70;;
24713;SDS011;12820;51.580;5.010;2023-10-31T15:43:52;13.73;;;7.95;;
24713;SDS011;12820;51.580;5.010;2023-10-31T15:48:56;13.95;;;7.93;;
24713;SDS011;12820;51.580;5.010;2023-10-31T15:53:58;16.50;;;8.65;;
24713;SDS011;12820;51.580;5.010;2023-10-31T15:59:01;16.85;;;8.10;;
24713;SDS011;12820;51.580;5.010;2023-10-31T16:04:04;14.52;;;8.60;;
24713;SDS011;12820;51.580;5.010;2023-10-31T16:09:06;15.20;;;8.75;;
24713;SDS011;12820;51.580;5.010;2023-10-31T16:14:08;19.70;;;9.73;;
24713;SDS011;12820;51.580;5.010;2023-10-31T16:19:10;19.50;;;10.27;;
24713;SDS011;12820;51.580;5.010;2023-10-31T16:24:13;15.65;;;9.60;;
24713;SDS011;12820;51.580;5.010;2023-10-31T16:29:15;14.80;;;9.35;;
24713;SDS011;12820;51.580;5.010;2023-10-31T16:34:17;17.10;;;11.75;;
24713;SDS011;12820;51.580;5.010;2023-10-31T16:39:21;19.77;;;10.60;;
24713;SDS011;12820;51.580;5.010;2023-10-31T16:44:23;16.33;;;10.30;;
24713;SDS011;12820;51.580;5.010;2023-10-31T16:49:25;20.15;;;10.77;;
24713;SDS011;12820;51.580;5.010;2023-10-31T16:54:27;19.38;;;10.57;;
24713;SDS011;12820;51.580;5.010;2023-10-31T16:59:29;19.13;;;11.15;;
24713;SDS011;12820;51.580;5.010;2023-10-31T17:04:31;19.27;;;12.02;;
24713;SDS011;12820;51.580;5.010;2023-10-31T17:09:37;19.98;;;12.25;;
24713;SDS011;12820;51.580;5.010;2023-10-31T17:14:39;17.88;;;11.90;;
24713;SDS011;12820;51.580;5.010;2023-10-31T17:19:42;24.25;;;13.43;;
24713;SDS011;12820;51.580;5.010;2023-10-31T17:24:44;22.67;;;11.95;;
24713;SDS011;12820;51.580;5.010;2023-10-31T17:29:50;25.40;;;13.90;;
24713;SDS011;12820;51.580;5.010;2023-10-31T17:34:53;21.90;;;13.43;;
24713;SDS011;12820;51.580;5.010;2023-10-31T17:39:55;20.83;;;12.52;;
24713;SDS011;12820;51.580;5.010;2023-10-31T17:44:57;24.60;;;13.32;;
24713;SDS011;12820;51.580;5.010;2023-10-31T17:49:59;22.15;;;13.15;;
24713;SDS011;12820;51.580;5.010;2023-10-31T17:55:01;20.73;;;13.32;;
24713;SDS011;12820;51.580;5.010;2023-10-31T18:00:04;21.25;;;13.32;;
24713;SDS011;12820;51.580;5.010;2023-10-31T18:05:12;23.52;;;12.90;;
24713;SDS011;12820;51.580;5.010;2023-10-31T18:10:15;21.23;;;13.27;;
24713;SDS011;12820;51.580;5.010;2023-10-31T18:15:17;21.67;;;14.48;;
24713;SDS011;12820;51.580;5.010;2023-10-31T18:20:21;28.58;;;13.57;;
24713;SDS011;12820;51.580;5.010;2023-10-31T18:25:23;25.42;;;13.77;;
24713;SDS011;12820;51.580;5.010;2023-10-31T18:30:25;27.02;;;14.13;;
24713;SDS011;12820;51.580;5.010;2023-10-31T18:35:28;24.48;;;14.95;;
24713;SDS011;12820;51.580;5.010;2023-10-31T18:40:31;28.52;;;14.23;;
24713;SDS011;12820;51.580;5.010;2023-10-31T18:45:34;24.88;;;14.20;;
24713;SDS011;12820;51.580;5.010;2023-10-31T18:50:36;26.08;;;15.02;;
24713;SDS011;12820;51.580;5.010;2023-10-31T18:55:39;28.63;;;14.45;;
24713;SDS011;12820;51.580;5.010;2023-10-31T19:00:41;31.30;;;15.93;;
24713;SDS011;12820;51.580;5.010;2023-10-31T19:05:43;34.42;;;16.58;;
24713;SDS011;12820;51.580;5.010;2023-10-31T19:10:46;20.45;;;10.63;;
24713;SDS011;12820;51.580;5.010;2023-10-31T19:15:49;33.88;;;16.13;;
24713;SDS011;12820;51.580;5.010;2023-10-31T19:20:51;30.13;;;14.90;;
24713;SDS011;12820;51.580;5.010;2023-10-31T19:25:54;29.88;;;14.10;;
24713;SDS011;12820;51.580;5.010;2023-10-31T19:30:56;33.85;;;14.93;;
24713;SDS011;12820;51.580;5.010;2023-10-31T19:35:58;26.08;;;13.48;;
24713;SDS011;12820;51.580;5.010;2023-10-31T19:41:00;31.60;;;13.60;;
24713;SDS011;12820;51.580;5.010;2023-10-31T19:46:03;22.50;;;12.25;;
24713;SDS011;12820;51.580;5.010;2023-10-31T19:51:06;25.58;;;12.43;;
24713;SDS011;12820;51.580;5.010;2023-10-31T19:56:19;27.13;;;12.35;;
24713;SDS011;12820;51.580;5.010;2023-10-31T20:01:22;33.10;;;12.38;;
24713;SDS011;12820;51.580;5.010;2023-10-31T20:06:26;25.45;;;11.55;;
24713;SDS011;12820;51.580;5.010;2023-10-31T20:11:28;34.22;;;12.98;;
24713;SDS011;12820;51.580;5.010;2023-10-31T20:16:30;29.60;;;12.30;;
24713;SDS011;12820;51.580;5.010;2023-10-31T20:21:32;31.95;;;11.38;;
24713;SDS011;12820;51.580;5.010;2023-10-31T20:26:34;33.45;;;11.85;;
24713;SDS011;12820;51.580;5.010;2023-10-31T20:31:37;28.38;;;10.73;;
24713;SDS011;12820;51.580;5.010;2023-10-31T20:36:39;30.67;;;11.10;;
24713;SDS011;12820;51.580;5.010;2023-10-31T20:41:43;26.67;;;11.27;;
24713;SDS011;12820;51.580;5.010;2023-10-31T20:46:46;24.15;;;10.20;;
24713;SDS011;12820;51.580;5.010;2023-10-31T20:51:49;23.13;;;8.90;;
24713;SDS011;12820;51.580;5.010;2023-10-31T20:56:51;24.35;;;9.40;;
24713;SDS011;12820;51.580;5.010;2023-10-31T21:01:58;24.35;;;8.60;;
24713;SDS011;12820;51.580;5.010;2023-10-31T21:07:00;31.50;;;8.93;;
24713;SDS011;12820;51.580;5.010;2023-10-31T21:12:02;25.60;;;8.73;;
24713;SDS011;12820;51.580;5.010;2023-10-31T21:17:05;25.00;;;8.40;;
24713;SDS011;12820;51.580;5.010;2023-10-31T21:22:07;23.55;;;8.07;;
24713;SDS011;12820;51.580;5.010;2023-10-31T21:27:10;25.88;;;8.02;;
24713;SDS011;12820;51.580;5.010;2023-10-31T21:32:12;22.15;;;8.10;;
24713;SDS011;12820;51.580;5.010;2023-10-31T21:37:14;25.48;;;8.20;;
24713;SDS011;12820;51.580;5.010;2023-10-31T21:42:16;26.63;;;8.20;;
24713;SDS011;12820;51.580;5.010;2023-10-31T21:47:18;29.33;;;8.25;;
24713;SDS011;12820;51.580;5.010;2023-10-31T21:52:20;27.33;;;7.88;;
24713;SDS011;12820;51.580;5.010;2023-10-31T21:57:22;24.70;;;7.68;;
24713;SDS011;12820;51.580;5.010;2023-10-31T22:02:24;23.35;;;7.82;;
24713;SDS011;12820;51.580;5.010;2023-10-31T22:07:27;21.00;;;7.63;;
24713;SDS011;12820;51.580;5.010;2023-10-31T22:12:29;22.45;;;7.70;;
24713;SDS011;12820;51.580;5.010;2023-10-31T22:17:31;37.47;;;9.10;;
24713;SDS011;12820;51.580;5.010;2023-10-31T22:22:34;24.75;;;8.93;;
24713;SDS011;12820;51.580;5.010;2023-10-31T22:27:36;22.50;;;7.97;;
24713;SDS011;12820;51.580;5.010;2023-10-31T22:32:38;26.20;;;8.43;;
24713;SDS011;12820;51.580;5.010;2023-10-31T22:37:40;32.22;;;7.68;;
24713;SDS011;12820;51.580;5.010;2023-10-31T22:42:42;25.67;;;8.13;;
24713;SDS011;12820;51.580;5.010;2023-10-31T22:47:45;30.13;;;8.85;;
24713;SDS011;12820;51.580;5.010;2023-10-31T22:52:47;32.83;;;9.20;;
24713;SDS011;12820;51.580;5.010;2023-10-31T22:57:49;21.40;;;9.43;;
24713;SDS011;12820;51.580;5.010;2023-10-31T23:02:55;23.25;;;9.00;;
24713;SDS011;12820;51.580;5.010;2023-10-31T23:07:57;25.70;;;8.57;;
24713;SDS011;12820;51.580;5.010;2023-10-31T23:12:59;22.73;;;7.47;;
24713;SDS011;12820;51.580;5.010;2023-10-31T23:18:02;24.85;;;7.70;;
24713;SDS011;12820;51.580;5.010;2023-10-31T23:23:04;20.08;;;7.78;;
24713;SDS011;12820;51.580;5.010;2023-10-31T23:28:06;22.30;;;7.47;;
24713;SDS011;12820;51.580;5.010;2023-10-31T23:33:09;20.05;;;7.07;;
24713;SDS011;12820;51.580;5.010;2023-10-31T23:38:11;18.52;;;6.90;;
24713;SDS011;12820;51.580;5.010;2023-10-31T23:43:13;19.75;;;6.80;;
24713;SDS011;12820;51.580;5.010;2023-10-31T23:48:15;24.90;;;6.68;;
24713;SDS011;12820;51.580;5.010;2023-10-31T23:53:17;22.75;;;7.22;;
24713;SDS011;12820;51.580;5.010;2023-10-31T23:58:20;25.40;;;6.55;;
